createdAt,value
2022-12-12T00:01:28.455Z,96004.35
2022-12-12T00:03:56.234Z,96009.97
2022-12-12T00:06:26.077Z,96019.91
2022-12-12T00:08:54.705Z,96023.16
2022-12-12T00:11:24.065Z,96023.70
2022-12-12T00:13:53.832Z,96041.54
2022-12-12T00:16:22.654Z,96052.20
2022-12-12T00:18:50.802Z,96057.22
2022-12-12T00:21:23.764Z,96058.28
2022-12-12T00:23:52.523Z,96064.39
2022-12-12T00:26:25.098Z,96071.67
2022-12-12T00:28:52.888Z,96080.58
2022-12-12T00:31:20.793Z,96075.87
2022-12-12T00:33:49.774Z,96070.57
2022-12-12T00:36:22.111Z,96071.89
2022-12-12T00:38:50.980Z,96065.94
2022-12-12T00:41:19.408Z,96072.90
2022-12-12T00:43:47.605Z,96078.98
2022-12-12T00:46:18.913Z,96076.05
2022-12-12T00:48:46.950Z,96084.28
2022-12-12T00:51:18.792Z,96082.72
2022-12-12T00:53:48.128Z,96080.84
2022-12-12T00:56:18.356Z,96080.07
2022-12-12T00:58:46.535Z,96078.79
2022-12-12T01:01:18.739Z,96076.45
2022-12-12T01:03:47.042Z,96074.03
2022-12-12T01:06:15.032Z,96081.16
2022-12-12T01:08:43.149Z,96079.79
2022-12-12T01:11:13.244Z,96089.06
2022-12-12T01:13:43.515Z,96077.61
2022-12-12T01:16:12.313Z,96087.15
2022-12-12T01:18:40.910Z,96080.66
2022-12-12T01:21:12.345Z,96078.14
2022-12-12T01:23:42.123Z,96081.19
2022-12-12T01:26:14.661Z,96072.55
2022-12-12T01:28:43.165Z,96080.77
2022-12-12T01:31:11.625Z,96087.08
2022-12-12T01:33:43.167Z,96093.94
2022-12-12T01:36:13.270Z,96097.13
2022-12-12T01:38:40.933Z,96081.23
2022-12-12T01:41:08.507Z,96068.77
2022-12-12T01:43:36.321Z,96073.47
2022-12-12T01:46:26.059Z,96079.81
2022-12-12T01:48:59.205Z,96076.08
2022-12-12T01:51:30.016Z,96077.09
2022-12-12T01:54:05.621Z,96076.03
2022-12-12T01:56:34.664Z,96078.61
2022-12-12T01:59:05.549Z,96086.55
2022-12-12T02:01:33.765Z,96087.88
2022-12-12T02:04:02.506Z,96086.09
2022-12-12T02:06:31.157Z,96090.84
2022-12-12T02:09:04.076Z,96088.78
2022-12-12T02:11:35.053Z,96088.50
2022-12-12T02:14:02.990Z,96091.39
2022-12-12T02:16:50.423Z,96083.67
2022-12-12T02:19:32.579Z,96088.92
2022-12-12T02:22:40.730Z,96100.00
2022-12-12T02:25:59.334Z,96094.95
2022-12-12T02:29:06.330Z,96096.52
2022-12-12T02:31:52.099Z,96100.18
2022-12-12T02:34:42.824Z,96097.84
2022-12-12T02:37:21.710Z,96096.64
2022-12-12T02:40:20.887Z,96092.95
2022-12-12T02:43:03.157Z,96093.49
2022-12-12T02:45:57.828Z,96086.91
2022-12-12T02:48:52.176Z,96089.33
2022-12-12T02:51:21.450Z,96086.18
2022-12-12T02:53:49.019Z,96084.85
2022-12-12T02:56:54.477Z,96087.50
2022-12-12T02:59:39.090Z,96093.61
2022-12-12T03:02:55.382Z,96100.94
2022-12-12T03:06:02.999Z,96102.53
2022-12-12T03:08:56.969Z,96095.91
2022-12-12T03:12:17.396Z,96091.94
2022-12-12T03:15:07.348Z,96101.20
2022-12-12T03:17:46.889Z,96108.61
2022-12-12T03:20:35.647Z,96105.66
2022-12-12T03:23:17.975Z,96109.94
2022-12-12T03:25:51.273Z,96111.27
2022-12-12T03:28:38.680Z,96110.48
2022-12-12T03:31:10.445Z,96110.95
2022-12-12T03:33:52.503Z,96106.98
2022-12-12T03:36:27.972Z,96106.20
2022-12-12T03:39:19.386Z,96114.15
2022-12-12T03:41:55.233Z,96105.73
2022-12-12T03:44:36.822Z,96104.64
2022-12-12T03:47:07.536Z,96105.66
2022-12-12T03:49:58.281Z,96099.80
2022-12-12T03:52:34.422Z,96095.00
2022-12-12T03:55:11.059Z,96098.44
2022-12-12T03:57:53.351Z,96084.95
2022-12-12T04:00:21.231Z,96085.49
2022-12-12T04:03:10.695Z,96086.09
2022-12-12T04:06:19.468Z,96090.61
2022-12-12T04:09:06.670Z,96099.62
2022-12-12T04:12:10.373Z,96102.58
2022-12-12T04:15:28.043Z,96112.63
2022-12-12T04:18:33.826Z,96111.35
2022-12-12T04:25:02.604Z,96107.45
2022-12-12T04:27:53.060Z,96116.23
2022-12-12T04:30:21.359Z,96130.02
2022-12-12T04:33:09.479Z,96127.38
2022-12-12T04:35:41.869Z,96119.42
2022-12-12T04:38:15.090Z,96119.66
2022-12-12T04:40:48.367Z,96113.30
2022-12-12T04:43:25.083Z,96121.30
2022-12-12T04:46:12.393Z,96122.37
2022-12-12T04:48:54.065Z,96132.24
2022-12-12T04:51:38.220Z,96128.00
2022-12-12T04:54:15.948Z,96137.81
2022-12-12T04:56:52.821Z,96134.39
2022-12-12T04:59:21.321Z,96148.53
2022-12-12T05:01:57.367Z,96157.53
2022-12-12T05:04:33.228Z,96155.30
2022-12-12T05:07:06.781Z,96149.81
2022-12-12T05:09:36.036Z,96152.50
2022-12-12T05:12:03.974Z,96154.95
2022-12-12T05:14:32.336Z,96145.72
2022-12-12T05:17:05.221Z,96158.73
2022-12-12T05:19:32.891Z,96141.98
2022-12-12T05:22:00.936Z,96142.25
2022-12-12T05:24:30.780Z,96140.62
2022-12-12T05:26:59.809Z,96142.25
2022-12-12T05:29:27.956Z,96144.91
2022-12-12T05:31:56.192Z,96143.08
2022-12-12T05:34:24.220Z,96149.73
2022-12-12T05:36:53.645Z,96160.05
2022-12-12T05:39:21.728Z,96162.70
2022-12-12T05:41:51.162Z,96167.80
2022-12-12T05:44:19.018Z,96174.66
2022-12-12T05:46:47.262Z,96181.04
2022-12-12T05:49:20.674Z,96182.41
2022-12-12T05:51:48.631Z,96176.94
2022-12-12T05:54:16.632Z,96178.38
2022-12-12T05:56:46.354Z,96189.23
2022-12-12T05:59:16.107Z,96186.89
2022-12-12T06:01:44.808Z,96196.94
2022-12-12T06:04:14.028Z,96201.45
2022-12-12T06:06:42.507Z,96206.95
2022-12-12T06:09:12.001Z,96213.81
2022-12-12T06:11:48.324Z,96216.97
2022-12-12T06:14:22.527Z,96223.05
2022-12-12T06:16:55.433Z,96229.66
2022-12-12T06:19:23.540Z,96229.66
2022-12-12T06:21:53.335Z,96225.99
2022-12-12T06:24:25.732Z,96220.43
2022-12-12T06:26:53.652Z,96233.43
2022-12-12T06:29:21.972Z,96233.73
2022-12-12T06:31:50.680Z,96232.41
2022-12-12T06:34:19.983Z,96240.59
2022-12-12T06:36:48.015Z,96235.53
2022-12-12T06:39:17.937Z,96247.21
2022-12-12T06:41:45.907Z,96253.32
2022-12-12T06:44:14.554Z,96256.27
2022-12-12T06:46:43.632Z,96254.70
2022-12-12T06:49:12.221Z,96256.06
2022-12-12T06:51:44.642Z,96252.91
2022-12-12T06:54:15.542Z,96266.45
2022-12-12T06:56:48.195Z,96265.70
2022-12-12T06:59:17.472Z,96259.11
2022-12-12T07:01:46.576Z,96264.95
2022-12-12T07:04:17.912Z,96259.69
2022-12-12T07:06:47.043Z,96261.55
2022-12-12T07:09:18.662Z,96269.82
2022-12-12T07:11:46.850Z,96269.79
2022-12-12T07:14:14.555Z,96272.14
2022-12-12T07:16:44.240Z,96265.25
2022-12-12T07:19:12.272Z,96268.13
2022-12-12T07:21:40.171Z,96270.78
2022-12-12T07:24:08.265Z,96279.50
2022-12-12T07:26:35.901Z,96265.70
2022-12-12T07:29:04.831Z,96271.20
2022-12-12T07:31:35.709Z,96277.58
2022-12-12T07:34:03.717Z,96278.36
2022-12-12T07:36:31.553Z,96280.44
2022-12-12T07:38:59.569Z,96277.72
2022-12-12T07:41:27.601Z,96276.46
2022-12-12T07:44:01.285Z,96279.92
2022-12-12T07:46:32.582Z,96290.48
2022-12-12T07:49:00.749Z,96291.50
2022-12-12T07:51:33.345Z,96297.34
2022-12-12T07:54:02.399Z,96294.45
2022-12-12T07:56:31.694Z,96296.02
2022-12-12T07:59:00.985Z,96299.95
2022-12-12T08:01:30.065Z,96310.52
2022-12-12T08:03:58.350Z,96314.73
2022-12-12T08:06:29.823Z,96319.72
2022-12-12T08:09:00.278Z,96313.38
2022-12-12T08:11:28.018Z,96315.72
2022-12-12T08:13:56.300Z,96317.83
2022-12-12T08:16:31.170Z,96321.25
2022-12-12T08:18:59.079Z,96321.22
2022-12-12T08:21:28.122Z,96323.05
2022-12-12T08:24:01.745Z,96327.03
2022-12-12T08:26:32.086Z,96325.64
2022-12-12T08:29:00.095Z,96321.67
2022-12-12T08:31:30.003Z,96325.85
2022-12-12T08:34:01.829Z,96326.66
2022-12-12T08:36:32.910Z,96323.20
2022-12-12T08:39:08.356Z,96323.20
2022-12-12T08:41:39.927Z,96316.85
2022-12-12T08:44:10.750Z,96317.33
2022-12-12T08:46:39.573Z,96326.57
2022-12-12T08:49:09.231Z,96334.72
2022-12-12T08:51:41.610Z,96327.53
2022-12-12T08:54:12.672Z,96324.30
2022-12-12T08:56:41.480Z,96327.94
2022-12-12T08:59:09.602Z,96328.41
2022-12-12T09:01:37.890Z,96332.90
2022-12-12T09:04:05.768Z,96331.61
2022-12-12T09:06:33.840Z,96329.53
2022-12-12T09:09:02.184Z,96323.45
2022-12-12T09:11:29.750Z,96324.78
2022-12-12T09:13:58.916Z,96324.23
2022-12-12T09:16:28.660Z,96321.86
2022-12-12T09:18:58.917Z,96326.85
2022-12-12T09:21:30.101Z,96330.55
2022-12-12T09:23:58.407Z,96329.02
2022-12-12T09:26:26.206Z,96329.02
2022-12-12T09:28:54.220Z,96330.05
2022-12-12T09:31:22.176Z,96323.18
2022-12-12T09:33:52.180Z,96328.17
2022-12-12T09:36:20.535Z,96331.38
2022-12-12T09:38:48.298Z,96330.28
2022-12-12T09:41:19.546Z,96330.55
2022-12-12T09:44:04.977Z,96333.41
2022-12-12T09:46:43.131Z,96328.86
2022-12-12T09:49:43.290Z,96327.97
2022-12-12T09:52:10.379Z,96325.29
2022-12-12T09:54:38.174Z,96319.92
2022-12-12T09:57:22.065Z,96322.73
2022-12-12T10:00:09.136Z,96324.23
2022-12-12T10:03:26.190Z,96318.08
2022-12-12T10:09:04.584Z,96319.70
2022-12-12T10:11:55.400Z,96314.17
2022-12-12T10:14:52.501Z,96312.23
2022-12-12T10:17:34.826Z,96309.06
2022-12-12T10:20:26.212Z,96313.86
2022-12-12T10:23:33.500Z,96312.03
2022-12-12T10:26:18.902Z,96316.27
2022-12-12T10:28:53.410Z,96315.42
2022-12-12T10:31:47.494Z,96310.63
2022-12-12T10:34:46.095Z,96319.60
2022-12-12T10:37:44.101Z,96323.58
2022-12-12T10:40:52.826Z,96317.50
2022-12-12T10:43:44.600Z,96316.44
2022-12-12T10:46:28.813Z,96311.37
2022-12-12T10:48:58.040Z,96306.61
2022-12-12T10:51:30.486Z,96308.18
2022-12-12T10:53:58.455Z,96302.84
2022-12-12T10:56:30.711Z,96303.90
2022-12-12T10:59:08.649Z,96302.05
2022-12-12T11:02:10.035Z,96305.30
2022-12-12T11:08:03.869Z,96301.31
2022-12-12T11:10:51.877Z,96301.79
2022-12-12T11:13:57.045Z,96306.23
2022-12-12T11:16:31.944Z,96294.38
2022-12-12T11:19:19.418Z,96306.70
2022-12-12T11:21:48.839Z,96317.55
2022-12-12T11:24:29.094Z,96318.29
2022-12-12T11:27:01.600Z,96319.81
2022-12-12T11:29:44.717Z,96324.58
2022-12-12T11:32:26.924Z,96326.44
2022-12-12T11:35:02.063Z,96324.06
2022-12-12T11:37:41.986Z,96327.69
2022-12-12T11:40:26.779Z,96326.84
2022-12-12T11:43:29.660Z,96329.21
2022-12-12T11:46:02.816Z,96333.43
2022-12-12T11:48:54.867Z,96335.80
2022-12-12T11:51:44.589Z,96336.08
2022-12-12T11:54:31.320Z,96335.06
2022-12-12T11:57:06.512Z,96335.84
2022-12-12T12:00:02.342Z,96336.91
2022-12-12T12:03:03.594Z,96338.73
2022-12-12T12:06:04.257Z,96341.82
2022-12-12T12:09:21.915Z,96341.30
2022-12-12T12:12:00.898Z,96341.78
2022-12-12T12:14:52.337Z,96343.06
2022-12-12T12:17:48.588Z,96349.11
2022-12-12T12:20:44.015Z,96343.73
2022-12-12T12:23:40.874Z,96353.48
2022-12-12T12:26:10.896Z,96347.83
2022-12-12T12:29:10.061Z,96344.83
2022-12-12T12:31:58.507Z,96353.22
2022-12-12T12:34:46.628Z,96361.13
2022-12-12T12:37:50.219Z,96363.78
2022-12-12T12:40:52.560Z,96366.20
2022-12-12T12:43:51.865Z,96370.42
2022-12-12T12:46:42.618Z,96377.29
2022-12-12T12:49:30.505Z,96377.02
2022-12-12T12:52:12.204Z,96383.10
2022-12-12T12:54:42.533Z,96382.13
2022-12-12T12:57:23.340Z,96389.84
2022-12-12T12:59:56.167Z,96388.56
2022-12-12T13:02:38.679Z,96387.23
2022-12-12T13:05:20.688Z,96390.78
2022-12-12T13:08:22.934Z,96393.86
2022-12-12T13:10:58.898Z,96389.52
2022-12-12T13:13:34.433Z,96387.21
2022-12-12T13:16:18.651Z,96386.23
2022-12-12T13:18:51.532Z,96386.84
2022-12-12T13:21:33.912Z,96381.11
2022-12-12T13:24:06.026Z,96383.52
2022-12-12T13:26:44.917Z,96381.18
2022-12-12T13:29:38.910Z,96385.50
2022-12-12T13:32:30.406Z,96381.86
2022-12-12T13:35:06.814Z,96376.36
2022-12-12T13:37:48.139Z,96379.34
2022-12-12T13:40:41.934Z,96379.38
2022-12-12T13:43:43.782Z,96372.31
2022-12-12T13:46:34.123Z,96374.22
2022-12-12T13:49:15.877Z,96367.08
2022-12-12T13:51:45.745Z,96380.13
2022-12-12T13:54:18.932Z,96383.41
2022-12-12T13:56:58.894Z,96388.20
2022-12-12T13:59:30.306Z,96392.20
2022-12-12T14:02:31.081Z,96403.66
2022-12-12T14:05:12.873Z,96401.81
2022-12-12T14:07:53.681Z,96392.55
2022-12-12T14:10:29.972Z,96392.30
2022-12-12T14:13:20.547Z,96398.95
2022-12-12T14:15:56.043Z,96400.86
2022-12-12T14:18:39.978Z,96412.30
2022-12-12T14:21:14.699Z,96414.73
2022-12-12T14:23:47.801Z,96411.87
2022-12-12T14:26:33.228Z,96405.25
2022-12-12T14:29:21.974Z,96412.41
2022-12-12T14:32:08.597Z,96407.92
2022-12-12T14:35:03.531Z,96404.52
2022-12-12T14:38:11.900Z,96411.98
2022-12-12T14:40:46.414Z,96420.20
2022-12-12T14:43:38.039Z,96416.80
2022-12-12T14:46:08.069Z,96413.37
2022-12-12T14:48:36.763Z,96417.88
2022-12-12T14:51:27.523Z,96412.34
2022-12-12T14:53:55.143Z,96415.26
2022-12-12T14:56:38.023Z,96433.25
2022-12-12T14:59:19.982Z,96440.71
2022-12-12T15:02:08.171Z,96444.14
2022-12-12T15:04:38.660Z,96449.69
2022-12-12T15:07:25.909Z,96447.03
2022-12-12T15:09:53.749Z,96442.82
2022-12-12T15:12:26.132Z,96443.36
2022-12-12T15:14:58.477Z,96452.88
2022-12-12T15:17:36.798Z,96448.63
2022-12-12T15:20:15.389Z,96450.22
2022-12-12T15:22:57.533Z,96449.73
2022-12-12T15:25:30.132Z,96455.52
2022-12-12T15:28:00.419Z,96455.52
2022-12-12T15:30:39.665Z,96462.14
2022-12-12T15:33:21.066Z,96462.38
2022-12-12T15:35:57.876Z,96462.66
2022-12-12T15:38:23.080Z,96463.68
2022-12-12T15:40:54.328Z,96459.23
2022-12-12T15:43:27.754Z,96457.63
2022-12-12T15:46:06.365Z,96460.81
2022-12-12T15:48:34.658Z,96465.89
2022-12-12T15:51:06.719Z,96472.05
2022-12-12T15:53:38.054Z,96479.23
2022-12-12T15:56:13.282Z,96478.99
2022-12-12T15:58:46.036Z,96480.59
2022-12-12T16:01:21.345Z,96485.64
2022-12-12T16:04:12.462Z,96488.58
2022-12-12T16:06:45.527Z,96484.61
2022-12-12T16:09:23.428Z,96491.47
2022-12-12T16:11:55.028Z,96490.63
2022-12-12T16:14:27.900Z,96495.14
2022-12-12T16:17:22.969Z,96497.25
2022-12-12T16:20:03.695Z,96497.01
2022-12-12T16:22:47.583Z,96498.35
2022-12-12T16:25:22.847Z,96506.57
2022-12-12T16:28:11.101Z,96507.13
2022-12-12T16:30:42.470Z,96515.61
2022-12-12T16:33:33.772Z,96513.77
2022-12-12T16:36:06.304Z,96516.42
2022-12-12T16:38:35.215Z,96518.55
2022-12-12T16:41:13.607Z,96520.16
2022-12-12T16:43:41.692Z,96518.84
2022-12-12T16:46:23.279Z,96527.33
2022-12-12T16:48:54.289Z,96530.22
2022-12-12T16:51:28.157Z,96531.30
2022-12-12T16:53:57.841Z,96522.66
2022-12-12T16:56:25.986Z,96532.20
2022-12-12T16:58:55.615Z,96536.53
2022-12-12T17:01:24.122Z,96533.14
2022-12-12T17:03:52.282Z,96535.36
2022-12-12T17:06:20.368Z,96534.66
2022-12-12T17:08:47.999Z,96540.50
2022-12-12T17:11:16.732Z,96543.98
2022-12-12T17:13:47.749Z,96546.66
2022-12-12T17:16:15.805Z,96542.52
2022-12-12T17:18:43.449Z,96548.37
2022-12-12T17:21:11.123Z,96545.77
2022-12-12T17:23:40.149Z,96545.80
2022-12-12T17:26:08.841Z,96544.53
2022-12-12T17:28:38.281Z,96550.91
2022-12-12T17:31:12.241Z,96555.17
2022-12-12T17:33:49.727Z,96559.39
2022-12-12T17:36:13.600Z,96560.47
2022-12-12T17:38:43.202Z,96560.22
2022-12-12T17:41:24.054Z,96569.77
2022-12-12T17:43:55.839Z,96567.62
2022-12-12T17:46:27.074Z,96580.05
2022-12-12T17:49:00.639Z,96585.08
2022-12-12T17:51:29.277Z,96591.95
2022-12-12T17:53:59.294Z,96599.63
2022-12-12T17:56:27.751Z,96607.55
2022-12-12T17:58:55.776Z,96608.92
2022-12-12T18:01:31.030Z,96618.18
2022-12-12T18:03:59.580Z,96626.94
2022-12-12T18:06:30.053Z,96629.90
2022-12-12T18:09:00.344Z,96629.66
2022-12-12T18:11:35.185Z,96634.69
2022-12-12T18:14:07.348Z,96637.36
2022-12-12T18:16:36.456Z,96640.00
2022-12-12T18:19:04.957Z,96645.82
2022-12-12T18:21:59.651Z,96648.77
2022-12-12T18:24:05.732Z,96654.86
2022-12-12T18:26:33.929Z,96653.03
2022-12-12T18:29:07.304Z,96662.79
2022-12-12T18:31:36.053Z,96660.70
2022-12-12T18:34:05.180Z,96669.67
2022-12-12T18:36:34.732Z,96670.73
2022-12-12T18:39:06.389Z,96683.92
2022-12-12T18:41:36.259Z,96693.43
2022-12-12T18:44:07.589Z,96699.23
2022-12-12T18:46:42.252Z,96702.41
2022-12-12T18:49:06.822Z,96708.47
2022-12-12T18:51:35.902Z,96710.30
2022-12-12T18:54:12.752Z,96708.99
2022-12-12T18:56:37.058Z,96714.53
2022-12-12T18:59:04.687Z,96719.55
2022-12-12T19:01:34.651Z,96726.13
2022-12-12T19:04:11.393Z,96735.36
2022-12-12T19:06:37.083Z,96735.88
2022-12-12T19:09:18.894Z,96736.94
2022-12-12T19:11:47.556Z,96740.35
2022-12-12T19:14:16.412Z,96759.61
2022-12-12T19:16:46.045Z,96761.69
2022-12-12T19:19:14.843Z,96761.97
2022-12-12T19:21:44.583Z,96767.50
2022-12-12T19:24:13.688Z,96766.98
2022-12-12T19:26:44.733Z,96768.56
2022-12-12T19:29:16.205Z,96769.59
2022-12-12T19:31:44.739Z,96771.20
2022-12-12T19:34:15.269Z,96779.62
2022-12-12T19:36:48.306Z,96788.84
2022-12-12T19:39:16.589Z,96783.58
2022-12-12T19:41:45.643Z,96781.20
2022-12-12T19:44:14.303Z,96789.63
2022-12-12T19:46:45.686Z,96788.31
2022-12-12T19:49:16.173Z,96792.53
2022-12-12T19:51:52.128Z,96789.88
2022-12-12T19:54:22.196Z,96795.97
2022-12-12T19:56:51.152Z,96798.33
2022-12-12T19:59:20.234Z,96800.95
2022-12-12T20:01:54.868Z,96799.63
2022-12-12T20:04:29.609Z,96804.38
2022-12-12T20:06:59.181Z,96811.50
2022-12-12T20:09:29.394Z,96814.70
2022-12-12T20:12:02.974Z,96811.26
2022-12-12T20:14:34.275Z,96817.08
2022-12-12T20:17:02.396Z,96818.64
2022-12-12T20:19:31.547Z,96813.34
2022-12-12T20:22:01.402Z,96827.34
2022-12-12T20:24:29.628Z,96834.19
2022-12-12T20:26:58.909Z,96837.34
2022-12-12T20:29:27.551Z,96840.47
2022-12-12T20:31:58.633Z,96839.38
2022-12-12T20:34:27.769Z,96843.86
2022-12-12T20:36:55.764Z,96836.97
2022-12-12T20:39:26.012Z,96831.36
2022-12-12T20:41:56.605Z,96846.95
2022-12-12T20:44:28.582Z,96846.12
2022-12-12T20:46:58.251Z,96850.34
2022-12-12T20:49:32.567Z,96849.00
2022-12-12T20:52:00.685Z,96854.53
2022-12-12T20:54:31.298Z,96847.92
2022-12-12T20:57:01.511Z,96845.53
2022-12-12T20:59:29.614Z,96850.01
2022-12-12T21:01:57.758Z,96848.17
2022-12-12T21:04:25.773Z,96849.20
2022-12-12T21:06:54.290Z,96852.09
2022-12-12T21:09:25.985Z,96863.16
2022-12-12T21:11:57.482Z,96862.61
2022-12-12T21:14:31.010Z,96868.93
2022-12-12T21:16:59.009Z,96863.38
2022-12-12T21:19:26.553Z,96872.05
2022-12-12T21:21:56.857Z,96869.39
2022-12-12T21:24:24.567Z,96872.55
2022-12-12T21:26:52.256Z,96876.73
2022-12-12T21:29:20.106Z,96880.40
2022-12-12T21:31:51.664Z,96880.92
2022-12-12T21:34:19.664Z,96884.11
2022-12-12T21:36:53.573Z,96883.34
2022-12-12T21:39:26.227Z,96878.63
2022-12-12T21:41:56.217Z,96878.63
2022-12-12T21:44:24.997Z,96881.77
2022-12-12T21:46:54.471Z,96876.23
2022-12-12T21:49:28.153Z,96883.34
2022-12-12T21:52:08.741Z,96884.92
2022-12-12T21:54:36.736Z,96888.83
2022-12-12T21:57:07.049Z,96893.27
2022-12-12T21:59:36.652Z,96895.09
2022-12-12T22:02:07.339Z,96897.98
2022-12-12T22:04:35.994Z,96899.86
2022-12-12T22:07:04.113Z,96893.56
2022-12-12T22:09:31.933Z,96893.88
2022-12-12T22:12:03.208Z,96892.09
2022-12-12T22:14:30.958Z,96895.27
2022-12-12T22:16:59.644Z,96894.50
2022-12-12T22:19:28.055Z,96899.51
2022-12-12T22:21:56.358Z,96891.36
2022-12-12T22:24:25.540Z,96889.80
2022-12-12T22:26:53.839Z,96892.48
2022-12-12T22:29:22.137Z,96886.69
2022-12-12T22:31:51.534Z,96893.52
2022-12-12T22:34:23.233Z,96891.44
2022-12-12T22:36:52.793Z,96895.38
2022-12-12T22:39:25.009Z,96890.09
2022-12-12T22:41:55.707Z,96889.28
2022-12-12T22:44:26.163Z,96883.97
2022-12-12T22:46:56.568Z,96886.58
2022-12-12T22:49:26.175Z,96886.55
2022-12-12T22:52:06.674Z,96888.12
2022-12-12T22:54:41.344Z,96887.63
2022-12-12T22:57:10.586Z,96887.84
2022-12-12T22:59:38.304Z,96882.30
2022-12-12T23:02:06.048Z,96876.97
2022-12-12T23:04:34.656Z,96877.48
2022-12-12T23:07:04.957Z,96880.31
2022-12-12T23:09:32.949Z,96888.98
2022-12-12T23:12:00.796Z,96886.32
2022-12-12T23:14:28.685Z,96882.58
2022-12-12T23:16:56.665Z,96887.08
2022-12-12T23:19:27.923Z,96893.13
2022-12-12T23:21:55.777Z,96892.08
2022-12-12T23:24:23.843Z,96891.52
2022-12-12T23:26:51.858Z,96887.02
2022-12-12T23:29:19.847Z,96877.52
2022-12-12T23:31:47.581Z,96886.44
2022-12-12T23:34:22.159Z,96886.14
2022-12-12T23:36:53.738Z,96887.95
2022-12-12T23:39:22.846Z,96895.81
2022-12-12T23:41:50.919Z,96892.09
2022-12-12T23:44:20.887Z,96893.64
2022-12-12T23:46:49.285Z,96895.19
2022-12-12T23:49:22.381Z,96896.47
2022-12-12T23:51:56.862Z,96897.48
2022-12-12T23:54:30.378Z,96894.03
2022-12-12T23:56:59.109Z,96889.27
2022-12-12T23:59:28.043Z,96896.06
